Chippewa, MI

1:29 PM EDT on August 30, 2014 (GMT -0400)
Mackinac Island | Change Station
CLOSE
Current Station
Airport
Location: Mackinac Island,
Elevation: 741 ft
Nearby Weather Stations

Elev 741 ft 45.87 °N, 84.64 °W | Updated 10 minutes ago

Overcast
Overcast
72 °F
Feels Like 72 °F
N
7
Wind Variable Wind from SSW

Today
High -- | Low -- °F
--% Chance of Precip.
Yesterday
High -- | Low -- °F
Precip. -- in
6:55 AM 8:20 PM
Waxing Crescent, 23% visible
Pressure 29.76 in
Visibility 10.0 miles
Clouds Overcast 1400 ft
Dew Point 70 °F
Humidity 93%
Rainfall 0.00 in
Snow Depth Not available.
UV 2 out of 12
Pollen 3.00 out of 12
Ozone Good
PM2.5 Moderate
Flu Activity Not available.
METAR KMCD 301719Z AUTO 20006KT 10SM OVC014 22/21 A2976 RMK AO2 T02210210

More Conditions Fewer Conditions

Pressure 29.76 in
Visibility 10.0 miles
Clouds Overcast 1400 ft
Dew Point 70 °F
Humidity 93%
Rainfall 0.00 in
Snow Depth Not available.
UV 2 out of 12
Pollen 3.00 out of 12
Ozone Good
PM2.5 Moderate
Flu Activity Not available.
METAR KMCD 301719Z AUTO 20006KT 10SM OVC014 22/21 A2976 RMK AO2 T02210210

More Conditions Fewer Conditions

Nowcast | as of 1:00 PM EDT on August 30, 2014

At 2 PM...periods of rain showers and chance of thunderstorms. Temperature 68. South winds 6 mph. At 4 PM...cloudy. Chance of thunderstorms. Temperature 70. Southwest winds 6 mph. At 6 PM...thunderstorms. Temperature 69. Light winds. At 8 PM...cloudy. Chance of rain showers. Temperature 66. Light winds.

×

10-Day Weather Forecast

Almanac

Astronomy

Aug. 30, 2014 Rise Set
Actual Time 6:55 AM EDT 8:20 PM EDT
Civil Twilight 6:24 AM EDT 8:51 PM EDT
Nautical Twilight 5:46 AM EDT 9:29 PM EDT
Astronomical Twilight 5:06 AM EDT 10:09 PM EDT
Moon 12:00 PM EDT 10:34 PM EDT
Length of Visible Light 14h 26m
Length of Day
13h 24m
Tomorrow will be 3m 8s shorter.
Waxing Crescent, 23% of the Moon is Illuminated
Today
Waxing Crescent
Sep 2
First Quarter
Sep 8
Full
Sep 15
Last Quarter
Sep 24
New

Today's Extremes

State Highs State Lows

Community

WunderPhotos

Upload Photos

1,748,578 photos uploaded!

WunderBlogs® & News

Nearby

Air Quality

  Air Quality AQ Index Pollutant
Yesterday Good
PM2.5
Yesterday Good
OZONE
Current Moderate
PM2.5
Current Good
OZONE
Saturday Good
OZONE
Saturday Good
PM2.5
Sunday Good
OZONE
Sunday Good
PM2.5
Monday Good
OZONE
Monday Good
PM2.5
Tuesday Good
OZONE
Tuesday Good
PM2.5

Snow Depth

Station Depth Elevation
No new snow has been reported.

Earthquake Activity

City Distance Mag. Time & Date
No recent earthquake activity has been reported nearby.
Minimum magnitude displayed is 2.5.

Coastal Water Temperatures

Place Temperature
De Tour Village, MI 60.1 °F
Rock Cut, MI 61.0 °F
Little Rapids, MI 59.0 °F
S W Pier, MI 61.0 °F
West Neebish, MI 59.0 °F

Nearby Weather Stations